Time;durP1;ratioP1;P1;durP2;ratioP2;P2;SDS_P1;SDS_P2;PMS_P1;PMS_P2;Temp;Humidity;BMP_temperature;BMP_pressure;BME280_temperature;BME280_humidity;BME280_pressure;Samples;Min_cycle;Max_cycle;Signal;HPM_P1;HPM_P2
2024/04/16 00:02:21;;;;;;;1.63;1.53;;;6.40;1.00;;;;;;5387708;26;20254;-73
2024/04/16 00:04:46;;;;;;;2.20;2.10;;;6.30;1.00;;;;;;5418773;26;20220;-72
2024/04/16 00:07:12;;;;;;;1.90;1.80;;;6.30;1.00;;;;;;5387479;26;20228;-74
2024/04/16 00:09:38;;;;;;;1.80;1.63;;;6.30;1.00;;;;;;5417032;26;20224;-71
2024/04/16 00:12:04;;;;;;;2.90;1.80;;;6.30;1.00;;;;;;5418562;26;20798;-70
2024/04/16 00:14:29;;;;;;;2.40;2.30;;;6.20;1.00;;;;;;5418819;26;20741;-74
2024/04/16 00:16:55;;;;;;;2.53;2.00;;;6.20;1.00;;;;;;5418667;26;20484;-73
2024/04/16 00:19:21;;;;;;;1.60;1.50;;;6.20;1.00;;;;;;5417586;26;20229;-70
2024/04/16 00:21:46;;;;;;;1.70;1.60;;;6.20;1.00;;;;;;5418785;26;20328;-73
2024/04/16 00:24:12;;;;;;;1.60;1.50;;;6.00;1.00;;;;;;5418492;26;20212;-70
2024/04/16 00:26:39;;;;;;;1.47;1.37;;;5.80;1.00;;;;;;5386921;26;20282;-70
2024/04/16 00:29:04;;;;;;;1.57;1.47;;;5.70;1.00;;;;;;5416580;26;20514;-70
2024/04/16 00:31:30;;;;;;;1.60;1.50;;;5.70;1.00;;;;;;5387372;26;20464;-70
2024/04/16 00:33:56;;;;;;;1.90;1.80;;;5.70;1.00;;;;;;5418360;26;20266;-71
2024/04/16 00:36:22;;;;;;;1.93;1.80;;;5.60;1.00;;;;;;5418498;26;20224;-74
2024/04/16 00:38:47;;;;;;;1.73;1.63;;;5.50;1.00;;;;;;5385982;26;20250;-70
2024/04/16 00:41:13;;;;;;;1.60;1.50;;;5.50;1.00;;;;;;5418253;26;20571;-70
2024/04/16 00:43:39;;;;;;;1.80;1.70;;;5.50;1.00;;;;;;5386856;26;20261;-70
2024/04/16 00:46:05;;;;;;;5.70;1.97;;;5.50;1.00;;;;;;5417440;26;20215;-70
2024/04/16 00:48:31;;;;;;;1.70;1.60;;;5.40;1.00;;;;;;5417443;26;20220;-71
2024/04/16 00:50:58;;;;;;;1.57;1.47;;;5.40;1.00;;;;;;5418232;26;20507;-70
2024/04/16 00:53:25;;;;;;;1.60;1.50;;;5.50;1.00;;;;;;5418225;26;20504;-74
2024/04/16 00:55:51;;;;;;;1.80;1.70;;;5.50;1.00;;;;;;5418212;26;20453;-70
2024/04/16 00:58:18;;;;;;;1.70;1.60;;;5.50;1.00;;;;;;5417055;26;20545;-70
2024/04/16 01:00:47;;;;;;;1.73;1.63;;;5.50;1.00;;;;;;5418089;26;20469;-70
2024/04/16 01:03:13;;;;;;;1.90;1.80;;;5.40;1.00;;;;;;5417345;26;21007;-72
2024/04/16 01:05:40;;;;;;;1.60;1.50;;;5.50;1.00;;;;;;5418210;26;20458;-74
2024/04/16 01:08:08;;;;;;;1.83;1.73;;;5.50;1.00;;;;;;5416812;26;20612;-74
2024/04/16 01:10:41;;;;;;;1.70;1.60;;;5.40;1.00;;;;;;5418044;26;20484;-72
2024/04/16 01:13:07;;;;;;;1.60;1.50;;;5.50;1.00;;;;;;5418116;26;20513;-70
2024/04/16 01:15:33;;;;;;;1.60;1.50;;;5.50;1.00;;;;;;5417841;26;20454;-76
2024/04/16 01:18:01;;;;;;;1.50;1.40;;;5.50;1.00;;;;;;5416681;26;20448;-71
2024/04/16 01:20:28;;;;;;;4.40;1.70;;;5.50;1.00;;;;;;5417098;26;20478;-73
2024/04/16 01:22:54;;;;;;;1.70;1.60;;;5.50;1.00;;;;;;5417430;26;20465;-71
2024/04/16 01:25:19;;;;;;;1.70;1.60;;;5.40;1.00;;;;;;5417908;26;20502;-76
2024/04/16 01:27:45;;;;;;;1.50;1.40;;;5.40;1.00;;;;;;5417635;26;20224;-75
2024/04/16 01:30:11;;;;;;;2.53;1.60;;;5.30;1.00;;;;;;5417193;26;20287;-71
2024/04/16 01:32:37;;;;;;;1.90;1.80;;;5.20;1.00;;;;;;5417408;26;20266;-74
2024/04/16 01:35:03;;;;;;;1.63;1.53;;;5.30;1.00;;;;;;5417726;26;20270;-74
2024/04/16 01:37:29;;;;;;;1.83;1.73;;;5.30;1.00;;;;;;5417369;26;20486;-70
2024/04/16 01:39:54;;;;;;;10.23;2.00;;;5.30;1.00;;;;;;5414795;26;20476;-75
2024/04/16 01:42:20;;;;;;;2.30;1.80;;;5.30;1.00;;;;;;5386149;26;20230;-75
2024/04/16 01:44:47;;;;;;;1.57;1.47;;;5.30;1.00;;;;;;5417394;26;20213;-71
2024/04/16 01:47:13;;;;;;;1.90;1.80;;;5.30;1.00;;;;;;5417458;26;20222;-74
2024/04/16 01:49:39;;;;;;;1.50;1.40;;;5.30;1.00;;;;;;5385130;26;20542;-71
2024/04/16 01:52:04;;;;;;;1.50;1.40;;;5.30;1.00;;;;;;5385765;26;20254;-74
2024/04/16 01:54:30;;;;;;;1.90;1.80;;;5.30;1.00;;;;;;5417305;26;20268;-74
2024/04/16 01:56:56;;;;;;;1.97;1.87;;;5.30;1.00;;;;;;5416196;26;20267;-74
2024/04/16 01:59:22;;;;;;;1.97;1.87;;;5.30;1.00;;;;;;5416252;26;20631;-75
2024/04/16 02:01:47;;;;;;;1.70;1.60;;;5.30;1.00;;;;;;5385929;26;20588;-75
2024/04/16 02:04:13;;;;;;;1.60;1.50;;;5.20;1.00;;;;;;5385704;26;20234;-75
2024/04/16 02:06:39;;;;;;;1.97;1.87;;;5.20;1.00;;;;;;5416933;26;20271;-72
2024/04/16 02:09:04;;;;;;;1.90;1.80;;;5.20;1.00;;;;;;5416388;26;20219;-75
2024/04/16 02:11:30;;;;;;;2.17;2.00;;;5.30;1.00;;;;;;5385640;26;20820;-71
2024/04/16 02:13:56;;;;;;;1.83;1.73;;;5.20;1.00;;;;;;5416935;26;20215;-74
2024/04/16 02:16:21;;;;;;;2.20;2.10;;;5.20;1.00;;;;;;5415586;26;20223;-71
2024/04/16 02:18:47;;;;;;;2.17;2.07;;;5.30;1.00;;;;;;5415698;26;20604;-75
2024/04/16 02:21:13;;;;;;;2.30;2.10;;;5.30;3.70;;;;;;5385200;26;20240;-74
2024/04/16 02:23:40;;;;;;;2.13;1.67;;;5.40;10.00;;;;;;5385377;26;20219;-73
2024/04/16 02:26:06;;;;;;;4.93;2.13;;;5.40;9.60;;;;;;5416693;26;20224;-74
2024/04/16 02:28:32;;;;;;;2.10;2.00;;;5.40;12.90;;;;;;5415770;26;20441;-74
2024/04/16 02:30:58;;;;;;;1.80;1.70;;;5.50;22.30;;;;;;5416334;26;20888;-74
2024/04/16 02:33:23;;;;;;;3.00;1.97;;;5.50;29.00;;;;;;5415709;26;20623;-75
2024/04/16 02:35:49;;;;;;;2.20;2.10;;;5.50;24.80;;;;;;5416509;26;20287;-76
2024/04/16 02:38:15;;;;;;;2.00;1.90;;;5.50;28.90;;;;;;5384069;26;20216;-75
2024/04/16 02:40:42;;;;;;;1.80;1.70;;;5.40;13.30;;;;;;5416463;26;20267;-71
2024/04/16 02:43:08;;;;;;;2.37;2.27;;;5.40;12.40;;;;;;5416462;26;20220;-72
2024/04/16 02:45:33;;;;;;;2.13;2.00;;;5.40;12.90;;;;;;5416368;26;20446;-75
2024/04/16 02:47:59;;;;;;;1.80;1.70;;;5.40;12.20;;;;;;5415164;26;20322;-74
2024/04/16 02:50:25;;;;;;;1.80;1.70;;;5.40;20.00;;;;;;5415407;26;20278;-71
2024/04/16 02:52:51;;;;;;;2.07;1.97;;;5.40;22.10;;;;;;5418289;26;20212;-75
2024/04/16 02:55:20;;;;;;;6.03;2.00;;;5.40;14.80;;;;;;5419733;26;20513;-74
2024/04/16 02:57:46;;;;;;;2.10;2.00;;;5.30;20.70;;;;;;5419564;26;20277;-74
2024/04/16 03:00:12;;;;;;;1.77;1.67;;;5.40;28.90;;;;;;5419642;26;21000;-75
2024/04/16 03:02:39;;;;;;;1.67;1.57;;;5.40;28.80;;;;;;5419827;26;20697;-73
2024/04/16 03:05:05;;;;;;;3.60;2.03;;;5.50;28.90;;;;;;5419954;26;20465;-72
2024/04/16 03:07:30;;;;;;;2.33;2.17;;;5.50;37.90;;;;;;5387454;26;20788;-72
2024/04/16 03:09:56;;;;;;;2.30;2.20;;;5.50;43.90;;;;;;5418895;26;20266;-75
2024/04/16 03:12:22;;;;;;;2.13;2.03;;;5.50;37.80;;;;;;5419734;26;20274;-72
2024/04/16 03:14:51;;;;;;;2.50;2.40;;;5.40;36.20;;;;;;5419495;26;20271;-75
2024/04/16 03:17:17;;;;;;;2.30;2.20;;;5.50;47.80;;;;;;5419336;26;20224;-73
2024/04/16 03:19:43;;;;;;;2.30;2.10;;;5.50;41.50;;;;;;5418915;26;20494;-73
2024/04/16 03:22:09;;;;;;;2.10;2.00;;;5.50;44.90;;;;;;5419429;26;20458;-73
2024/04/16 03:24:35;;;;;;;2.70;2.50;;;5.50;47.60;;;;;;5387226;26;20693;-73
2024/04/16 03:27:01;;;;;;;2.30;2.20;;;5.50;48.10;;;;;;5419309;26;20450;-75
2024/04/16 03:29:26;;;;;;;2.17;1.97;;;5.50;46.90;;;;;;5418316;26;20466;-74
2024/04/16 03:31:52;;;;;;;2.80;2.60;;;5.50;47.20;;;;;;5419343;26;20260;-75
2024/04/16 03:34:18;;;;;;;2.20;2.10;;;5.50;47.80;;;;;;5419742;26;20220;-73
2024/04/16 03:36:43;;;;;;;2.40;2.30;;;5.50;49.90;;;;;;5419169;26;20228;-74
2024/04/16 03:39:09;;;;;;;3.00;2.57;;;5.60;56.10;;;;;;5418502;26;20732;-73
2024/04/16 03:41:35;;;;;;;2.53;2.33;;;5.50;49.30;;;;;;5419054;26;20214;-73
2024/04/16 03:44:01;;;;;;;4.13;2.43;;;5.60;49.80;;;;;;5418379;26;20263;-73
2024/04/16 03:46:27;;;;;;;1.97;1.83;;;5.50;42.20;;;;;;5419053;26;20263;-73
2024/04/16 03:48:52;;;;;;;2.57;2.37;;;5.60;47.60;;;;;;5417959;26;20824;-73
2024/04/16 03:51:19;;;;;;;2.30;2.10;;;5.60;41.80;;;;;;5419089;26;20454;-74
2024/04/16 03:53:45;;;;;;;2.53;2.33;;;5.60;43.50;;;;;;5419199;26;20220;-73
2024/04/16 03:56:11;;;;;;;3.03;2.80;;;5.60;49.10;;;;;;5418928;26;20447;-74
2024/04/16 03:58:44;;;;;;;2.80;2.57;;;5.60;39.80;;;;;;5418324;26;20495;-74
2024/04/16 04:01:12;;;;;;;2.33;2.10;;;5.60;40.20;;;;;;5419000;26;20235;-73
2024/04/16 04:03:39;;;;;;;2.10;2.00;;;5.60;39.70;;;;;;5417313;26;20458;-74
2024/04/16 04:06:05;;;;;;;4.93;2.70;;;5.60;36.30;;;;;;5418909;26;20454;-73
2024/04/16 04:08:31;;;;;;;4.07;2.30;;;5.60;35.30;;;;;;5417987;26;20499;-73
2024/04/16 04:10:56;;;;;;;3.23;3.00;;;5.60;35.30;;;;;;5418987;26;20518;-75
2024/04/16 04:13:22;;;;;;;2.37;2.17;;;5.60;36.90;;;;;;5418746;26;20301;-73
2024/04/16 04:15:48;;;;;;;3.07;2.77;;;5.60;29.10;;;;;;5387187;26;20294;-73
2024/04/16 04:18:14;;;;;;;2.83;2.27;;;5.60;33.60;;;;;;5386222;26;20548;-73
2024/04/16 04:20:39;;;;;;;3.23;2.83;;;5.50;37.00;;;;;;5418969;26;20706;-72
2024/04/16 04:23:07;;;;;;;2.50;2.30;;;5.60;47.70;;;;;;5418386;26;20930;-75
2024/04/16 04:25:33;;;;;;;2.60;2.40;;;5.60;48.50;;;;;;5418137;26;20271;-73
2024/04/16 04:27:58;;;;;;;6.73;2.53;;;5.50;44.50;;;;;;5386019;26;20962;-75
2024/04/16 04:30:24;;;;;;;3.20;2.90;;;5.60;50.80;;;;;;5418766;26;20240;-74
2024/04/16 04:32:51;;;;;;;2.60;2.40;;;5.60;56.70;;;;;;5418521;26;20217;-73
2024/04/16 04:35:17;;;;;;;2.43;2.33;;;5.70;63.00;;;;;;5418445;26;20954;-74
2024/04/16 04:37:42;;;;;;;2.67;2.47;;;5.60;51.30;;;;;;5418559;26;20522;-74
2024/04/16 04:40:09;;;;;;;2.13;2.00;;;5.60;50.70;;;;;;5417555;26;20541;-74
2024/04/16 04:42:35;;;;;;;2.43;2.33;;;5.60;59.20;;;;;;5418450;26;20317;-74
2024/04/16 04:45:00;;;;;;;2.63;2.40;;;5.70;61.50;;;;;;5417396;26;20450;-73
2024/04/16 04:47:26;;;;;;;2.40;2.20;;;5.60;60.30;;;;;;5418294;26;20212;-75
2024/04/16 04:49:53;;;;;;;2.30;2.20;;;5.60;57.60;;;;;;5417168;26;20229;-74
2024/04/16 04:52:19;;;;;;;3.07;2.80;;;5.70;62.70;;;;;;5418195;26;20472;-74
2024/04/16 04:54:44;;;;;;;2.80;2.60;;;5.70;62.50;;;;;;5418167;26;20501;-74
2024/04/16 04:57:10;;;;;;;2.83;2.60;;;5.70;61.90;;;;;;5418551;26;20317;-73
2024/04/16 04:59:36;;;;;;;4.43;3.10;;;5.70;62.20;;;;;;5385836;26;20233;-74
2024/04/16 05:02:02;;;;;;;3.40;2.60;;;5.70;63.20;;;;;;5416938;26;20228;-74
2024/04/16 05:04:28;;;;;;;2.50;2.40;;;5.70;60.00;;;;;;5417990;26;20341;-73
2024/04/16 05:06:54;;;;;;;2.40;2.30;;;5.70;67.80;;;;;;5417969;26;20458;-73
2024/04/16 05:09:20;;;;;;;3.30;2.77;;;5.80;67.80;;;;;;5417527;26;20233;-73
2024/04/16 05:11:46;;;;;;;2.83;2.73;;;5.70;64.50;;;;;;5418131;26;20225;-73
2024/04/16 05:14:12;;;;;;;3.13;2.90;;;5.80;70.70;;;;;;5417022;26;20325;-74
2024/04/16 05:16:38;;;;;;;3.47;3.13;;;5.90;77.20;;;;;;5385945;26;20233;-74
2024/04/16 05:19:03;;;;;;;2.73;2.53;;;5.90;73.80;;;;;;5416341;26;20438;-73
2024/04/16 05:21:30;;;;;;;3.37;3.13;;;5.90;72.50;;;;;;5417257;26;20659;-73
2024/04/16 05:23:56;;;;;;;2.47;2.27;;;5.80;67.70;;;;;;5418067;26;20221;-74
2024/04/16 05:26:24;;;;;;;2.80;2.60;;;5.90;77.90;;;;;;5417746;26;20486;-75
2024/04/16 05:28:50;;;;;;;2.20;2.10;;;5.90;78.00;;;;;;5416554;26;20866;-75
2024/04/16 05:31:16;;;;;;;2.47;2.37;;;5.90;78.00;;;;;;5417670;26;21029;-74
2024/04/16 05:33:42;;;;;;;2.50;2.30;;;5.90;76.10;;;;;;5417760;26;20990;-73
2024/04/16 05:36:08;;;;;;;6.43;3.07;;;5.90;74.70;;;;;;5417460;26;20498;-73
2024/04/16 05:38:34;;;;;;;2.50;2.30;;;6.00;78.10;;;;;;5416445;26;20213;-74
2024/04/16 05:41:01;;;;;;;3.43;2.60;;;6.00;78.10;;;;;;5416505;26;20517;-74
2024/04/16 05:43:27;;;;;;;4.60;2.73;;;6.10;78.20;;;;;;5417460;26;20447;-73
2024/04/16 05:45:53;;;;;;;3.20;2.80;;;6.10;78.20;;;;;;5417451;26;20495;-74
2024/04/16 05:48:18;;;;;;;2.30;2.20;;;6.10;78.10;;;;;;5416734;26;20216;-75
2024/04/16 05:50:44;;;;;;;2.50;2.30;;;6.10;78.10;;;;;;5417338;26;20259;-74
2024/04/16 05:53:10;;;;;;;2.90;2.70;;;6.00;74.40;;;;;;5417457;26;20313;-75
2024/04/16 05:55:36;;;;;;;2.70;2.50;;;6.10;78.10;;;;;;5417206;26;20220;-75
2024/04/16 05:58:01;;;;;;;5.83;2.50;;;6.10;78.20;;;;;;5383520;26;20497;-70
2024/04/16 06:00:27;;;;;;;2.10;2.00;;;6.10;78.20;;;;;;5385804;26;20252;-72
2024/04/16 06:02:53;;;;;;;3.40;3.00;;;6.10;78.10;;;;;;5416838;26;20324;-71
2024/04/16 06:05:19;;;;;;;2.50;2.27;;;6.20;79.80;;;;;;5385651;26;20574;-71
2024/04/16 06:07:44;;;;;;;2.80;2.30;;;6.20;78.30;;;;;;5417003;26;20494;-71
2024/04/16 06:10:10;;;;;;;3.20;2.33;;;6.20;69.00;;;;;;5416206;26;20717;-75
2024/04/16 06:12:36;;;;;;;3.37;2.07;;;6.20;71.80;;;;;;5416809;26;20220;-73
2024/04/16 06:15:01;;;;;;;2.10;2.00;;;6.30;71.60;;;;;;5416987;26;20596;-74
2024/04/16 06:17:27;;;;;;;2.17;2.07;;;6.20;61.20;;;;;;5416200;26;20213;-74
2024/04/16 06:19:53;;;;;;;2.07;1.97;;;6.30;67.80;;;;;;5415201;26;20521;-72
2024/04/16 06:22:19;;;;;;;3.63;2.60;;;6.40;76.00;;;;;;5416948;26;20258;-71
2024/04/16 06:24:44;;;;;;;2.43;2.23;;;6.40;73.60;;;;;;5416706;26;20212;-74
2024/04/16 06:27:10;;;;;;;2.30;2.20;;;6.50;71.40;;;;;;5419337;26;20564;-75
2024/04/16 06:29:37;;;;;;;2.20;2.10;;;6.50;64.10;;;;;;5419265;26;20294;-71
2024/04/16 06:32:07;;;;;;;2.73;2.63;;;6.40;56.60;;;;;;5420389;26;20969;-75
2024/04/16 06:34:32;;;;;;;2.17;2.07;;;6.40;55.00;;;;;;5420239;26;20912;-72
2024/04/16 06:36:58;;;;;;;2.23;2.13;;;6.40;60.60;;;;;;5420026;26;20435;-72
2024/04/16 06:39:24;;;;;;;2.23;2.13;;;6.50;69.90;;;;;;5417866;26;20228;-75
2024/04/16 06:41:49;;;;;;;3.43;2.77;;;6.50;62.60;;;;;;5420463;26;20213;-75
2024/04/16 06:44:15;;;;;;;2.53;2.33;;;6.50;53.50;;;;;;5420088;26;20674;-70
2024/04/16 06:46:41;;;;;;;4.83;2.97;;;6.40;48.10;;;;;;5419955;26;20713;-74
2024/04/16 06:49:07;;;;;;;4.70;2.13;;;6.50;63.80;;;;;;5418889;26;20221;-73
2024/04/16 06:51:33;;;;;;;2.87;2.67;;;6.60;65.50;;;;;;5419838;26;20793;-73
2024/04/16 06:53:58;;;;;;;2.87;2.67;;;6.70;67.30;;;;;;5388376;26;20499;-73
2024/04/16 06:56:24;;;;;;;2.70;2.50;;;6.70;61.60;;;;;;5388444;26;20298;-73
2024/04/16 06:58:50;;;;;;;5.10;2.90;;;6.70;57.40;;;;;;5417623;26;20250;-74
2024/04/16 07:01:16;;;;;;;3.10;2.90;;;6.80;65.60;;;;;;5419479;26;20418;-74
2024/04/16 07:03:41;;;;;;;7.63;2.77;;;6.70;43.60;;;;;;5388268;26;20251;-72
2024/04/16 07:06:08;;;;;;;2.50;2.30;;;6.80;41.30;;;;;;5419689;26;20221;-76
2024/04/16 07:08:34;;;;;;;2.53;2.33;;;6.90;39.90;;;;;;5418671;26;20697;-75
2024/04/16 07:11:00;;;;;;;2.60;2.40;;;6.80;29.90;;;;;;5419704;26;20487;-75
2024/04/16 07:13:27;;;;;;;3.10;2.83;;;6.90;30.00;;;;;;5419530;26;20216;-73
2024/04/16 07:15:53;;;;;;;2.87;2.50;;;7.00;30.00;;;;;;5419551;26;20272;-73
2024/04/16 07:18:19;;;;;;;2.93;2.43;;;7.00;17.10;;;;;;5418121;26;20700;-73
2024/04/16 07:20:48;;;;;;;2.67;2.47;;;7.10;12.80;;;;;;5418623;26;20259;-76
2024/04/16 07:23:14;;;;;;;3.83;2.33;;;7.00;1.00;;;;;;5387852;26;20692;-76
2024/04/16 07:25:44;;;;;;;8.83;2.37;;;7.10;1.00;;;;;;5388245;26;20458;-75
2024/04/16 07:28:09;;;;;;;2.77;2.57;;;7.10;1.00;;;;;;5418703;26;20700;-73
2024/04/16 07:30:35;;;;;;;3.83;2.53;;;7.20;1.00;;;;;;5387940;26;20518;-74
2024/04/16 07:33:02;;;;;;;3.50;3.20;;;7.30;1.00;;;;;;5419417;26;20216;-73
2024/04/16 07:35:27;;;;;;;2.20;2.10;;;7.20;1.00;;;;;;5419195;26;20681;-74
2024/04/16 07:37:53;;;;;;;2.60;2.50;;;7.30;1.00;;;;;;5417064;26;20494;-73
2024/04/16 07:40:18;;;;;;;2.43;2.27;;;7.30;1.00;;;;;;5418810;26;20480;-72
2024/04/16 07:42:44;;;;;;;2.50;2.13;;;7.20;1.00;;;;;;5419188;26;20212;-72
2024/04/16 07:45:10;;;;;;;2.57;2.40;;;7.10;1.00;;;;;;5387912;26;20635;-75
2024/04/16 07:47:35;;;;;;;3.13;2.40;;;7.10;1.00;;;;;;5419108;26;20221;-72
2024/04/16 07:50:01;;;;;;;2.60;2.30;;;7.10;1.00;;;;;;5418419;26;20224;-75
2024/04/16 07:52:27;;;;;;;2.40;2.20;;;7.20;1.00;;;;;;5387828;26;20275;-75
2024/04/16 07:54:52;;;;;;;2.00;1.90;;;7.10;1.00;;;;;;5417908;26;20225;-74
2024/04/16 07:57:18;;;;;;;2.33;2.23;;;7.10;1.00;;;;;;5418792;26;20265;-73
2024/04/16 07:59:44;;;;;;;3.97;2.30;;;7.10;1.00;;;;;;5418443;26;20229;-73
2024/04/16 08:02:09;;;;;;;2.47;2.27;;;7.30;1.00;;;;;;5418998;26;20607;-75
2024/04/16 08:04:35;;;;;;;2.30;2.20;;;7.30;1.00;;;;;;5387439;26;20229;-74
2024/04/16 08:07:01;;;;;;;2.60;2.40;;;7.40;1.00;;;;;;5418999;26;20228;-74
2024/04/16 08:09:26;;;;;;;2.87;2.67;;;7.40;1.00;;;;;;5418208;26;20597;-74
2024/04/16 08:11:52;;;;;;;2.67;2.47;;;7.40;1.00;;;;;;5418786;26;20331;-75
2024/04/16 08:14:20;;;;;;;3.30;3.00;;;7.50;1.00;;;;;;5417791;26;20354;-75
2024/04/16 08:16:46;;;;;;;2.40;2.30;;;7.60;1.00;;;;;;5418761;26;20693;-75
2024/04/16 08:19:11;;;;;;;2.20;2.10;;;7.60;1.00;;;;;;5418065;26;20466;-74
2024/04/16 08:21:37;;;;;;;3.57;2.03;;;7.70;1.00;;;;;;5418654;26;20220;-73
2024/04/16 08:24:03;;;;;;;2.40;2.20;;;7.70;1.00;;;;;;5418563;26;20637;-73
2024/04/16 08:26:29;;;;;;;2.87;2.57;;;7.80;1.00;;;;;;5418806;26;20740;-73
2024/04/16 08:28:55;;;;;;;1.90;1.80;;;7.80;1.00;;;;;;5386463;26;20424;-73
2024/04/16 08:31:20;;;;;;;2.60;2.40;;;7.90;1.00;;;;;;5418513;26;20217;-73
2024/04/16 08:33:46;;;;;;;3.20;2.63;;;8.00;1.00;;;;;;5417497;26;20271;-73
2024/04/16 08:36:12;;;;;;;2.90;2.70;;;8.00;1.00;;;;;;5417882;26;20297;-75
2024/04/16 08:38:37;;;;;;;2.57;2.37;;;7.90;1.00;;;;;;5417832;26;20265;-73
2024/04/16 08:41:03;;;;;;;3.13;2.83;;;7.90;1.00;;;;;;5387211;26;20718;-73
2024/04/16 08:43:33;;;;;;;2.93;2.73;;;8.00;1.00;;;;;;5418300;26;20708;-75
2024/04/16 08:46:02;;;;;;;4.10;2.47;;;8.00;1.00;;;;;;5386506;26;21121;-73
2024/04/16 08:48:31;;;;;;;2.80;2.60;;;8.10;1.00;;;;;;5385640;26;20467;-75
2024/04/16 08:50:58;;;;;;;2.83;2.50;;;8.20;1.00;;;;;;5415802;26;20459;-75
2024/04/16 08:53:26;;;;;;;3.00;2.73;;;8.20;1.00;;;;;;5418217;26;20443;-71
2024/04/16 08:55:52;;;;;;;2.80;2.60;;;8.20;1.00;;;;;;5418106;26;20419;-74
2024/04/16 08:58:18;;;;;;;1.90;1.80;;;8.10;1.00;;;;;;5417464;26;20491;-73
2024/04/16 09:00:44;;;;;;;2.20;2.10;;;8.10;1.00;;;;;;5386530;26;20241;-73
2024/04/16 09:03:09;;;;;;;4.67;1.97;;;8.20;1.00;;;;;;5418213;26;20227;-75
2024/04/16 09:05:35;;;;;;;2.30;2.10;;;8.20;1.00;;;;;;5418003;26;20489;-73
2024/04/16 09:08:01;;;;;;;6.70;2.10;;;8.20;1.00;;;;;;5416389;26;20270;-75
2024/04/16 09:10:27;;;;;;;3.50;2.70;;;8.40;1.00;;;;;;5417803;26;20604;-73
2024/04/16 09:12:53;;;;;;;2.80;2.67;;;8.50;1.00;;;;;;5417939;26;20217;-73
2024/04/16 09:15:20;;;;;;;2.80;2.67;;;8.50;1.00;;;;;;5417916;26;20264;-74
2024/04/16 09:17:53;;;;;;;2.17;2.07;;;8.50;1.00;;;;;;5417822;26;20483;-74
2024/04/16 09:20:26;;;;;;;1.83;1.70;;;8.50;1.00;;;;;;5417543;26;20916;-75
2024/04/16 09:22:53;;;;;;;1.83;1.73;;;8.50;1.00;;;;;;5417775;26;20968;-72
2024/04/16 09:25:20;;;;;;;1.90;1.80;;;8.50;1.00;;;;;;5416602;26;20423;-74
2024/04/16 09:27:47;;;;;;;1.60;1.50;;;8.40;1.00;;;;;;5386181;26;20451;-74
2024/04/16 09:30:14;;;;;;;5.00;1.80;;;8.30;1.00;;;;;;5417251;26;20978;-75
2024/04/16 09:32:45;;;;;;;1.50;1.40;;;8.30;1.00;;;;;;5417531;26;20447;-74
2024/04/16 09:35:11;;;;;;;2.33;1.50;;;8.20;1.00;;;;;;5417561;26;20468;-72
2024/04/16 09:37:36;;;;;;;1.60;1.50;;;8.10;1.00;;;;;;5417526;26;20455;-74
2024/04/16 09:40:03;;;;;;;1.23;1.13;;;8.00;1.00;;;;;;5416805;26;20594;-73
2024/04/16 09:42:32;;;;;;;1.57;1.47;;;7.70;1.00;;;;;;5386114;26;20240;-73
2024/04/16 09:44:58;;;;;;;1.63;1.50;;;7.70;1.00;;;;;;5416453;26;20962;-71
2024/04/16 09:47:25;;;;;;;1.30;1.20;;;7.60;1.00;;;;;;5417308;26;20474;-73
2024/04/16 09:49:54;;;;;;;2.87;1.43;;;7.50;1.00;;;;;;5416905;26;20514;-73
2024/04/16 09:52:20;;;;;;;1.20;1.10;;;7.40;1.00;;;;;;5417337;26;20964;-73
2024/04/16 09:54:48;;;;;;;1.30;1.20;;;7.40;14.30;;;;;;5385611;26;20454;-75
2024/04/16 09:57:19;;;;;;;1.60;1.30;;;7.40;32.40;;;;;;5417229;26;20419;-74
2024/04/16 09:59:47;;;;;;;1.30;1.20;;;7.50;42.10;;;;;;5416560;26;20450;-74
2024/04/16 10:02:13;;;;;;;1.40;1.30;;;7.40;48.10;;;;;;5422418;26;20446;-74
2024/04/16 10:04:40;;;;;;;1.40;1.30;;;7.50;61.70;;;;;;5392739;26;20510;-73
2024/04/16 10:07:07;;;;;;;1.30;1.20;;;7.40;67.00;;;;;;5424746;26;20224;-72
2024/04/16 10:09:33;;;;;;;1.20;1.10;;;7.50;79.20;;;;;;5392308;26;20472;-74
2024/04/16 10:12:00;;;;;;;1.40;1.30;;;7.50;79.20;;;;;;5424398;26;20752;-75
2024/04/16 10:14:26;;;;;;;1.30;1.20;;;7.60;88.70;;;;;;5453465;26;20459;-72
2024/04/16 10:16:53;;;;;;;1.20;1.10;;;7.60;92.90;;;;;;5460477;26;20443;-73
2024/04/16 10:19:19;;;;;;;1.30;1.20;;;7.60;93.70;;;;;;5458401;26;20503;-74
2024/04/16 10:21:47;;;;;;;1.60;1.50;;;7.50;86.80;;;;;;5428604;26;20512;-71
2024/04/16 10:24:17;;;;;;;1.50;1.40;;;7.40;80.50;;;;;;5428447;26;20421;-72
2024/04/16 10:26:44;;;;;;;1.20;1.10;;;7.30;79.10;;;;;;5460097;26;20500;-73
2024/04/16 10:29:24;;;;;;;1.33;1.23;;;7.30;83.30;;;;;;5459435;26;20513;-75
2024/04/16 10:31:51;;;;;;;1.33;1.23;;;7.30;90.20;;;;;;5460385;26;20416;-72
2024/04/16 10:34:22;;;;;;;1.20;1.10;;;7.20;91.10;;;;;;5460093;26;21150;-74
2024/04/16 10:36:49;;;;;;;1.30;1.20;;;7.20;92.50;;;;;;5459127;26;20445;-74
2024/04/16 10:39:16;;;;;;;1.20;1.10;;;7.30;98.30;;;;;;5459063;26;20515;-73
2024/04/16 10:41:52;;;;;;;1.23;1.13;;;7.40;99.90;;;;;;5460177;26;20452;-72
2024/04/16 10:44:18;;;;;;;1.30;1.20;;;7.50;99.90;;;;;;5428208;26;20534;-73
2024/04/16 10:46:45;;;;;;;1.40;1.30;;;7.50;99.90;;;;;;5459916;26;20512;-74
2024/04/16 10:49:13;;;;;;;2.43;1.50;;;7.50;99.90;;;;;;5458959;26;20582;-74
2024/04/16 10:51:39;;;;;;;3.23;1.30;;;7.50;99.90;;;;;;5459106;26;20440;-74
2024/04/16 10:54:07;;;;;;;1.30;1.20;;;7.50;99.90;;;;;;5427800;26;20456;-72
2024/04/16 10:56:36;;;;;;;1.10;1.00;;;7.50;99.90;;;;;;5459681;26;20283;-72
2024/04/16 10:59:06;;;;;;;1.63;1.10;;;7.50;99.90;;;;;;5458734;26;20504;-71
2024/04/16 11:01:32;;;;;;;1.30;1.20;;;7.50;99.90;;;;;;5459642;26;20514;-72
2024/04/16 11:04:17;;;;;;;1.40;1.30;;;7.60;99.90;;;;;;5459482;26;21014;-72
2024/04/16 11:06:45;;;;;;;1.13;1.03;;;7.60;99.90;;;;;;5459559;26;20425;-72
2024/04/16 11:09:10;;;;;;;1.60;1.50;;;7.70;99.90;;;;;;5458241;26;20980;-72
2024/04/16 11:11:38;;;;;;;1.47;1.37;;;7.80;99.90;;;;;;5458794;26;20560;-74
2024/04/16 11:14:07;;;;;;;1.40;1.30;;;7.80;99.90;;;;;;5454273;26;20537;-72
2024/04/16 11:16:33;;;;;;;1.50;1.40;;;7.80;99.90;;;;;;5455414;26;20572;-75
2024/04/16 11:18:59;;;;;;;1.20;1.10;;;7.70;99.90;;;;;;5422491;26;20862;-74
2024/04/16 11:21:35;;;;;;;1.50;1.40;;;7.70;99.90;;;;;;5455461;26;20266;-72
2024/04/16 11:24:04;;;;;;;1.37;1.27;;;7.80;99.90;;;;;;5455747;26;20417;-72
2024/04/16 11:26:30;;;;;;;1.87;1.77;;;7.80;99.90;;;;;;5455540;26;20501;-72
2024/04/16 11:28:55;;;;;;;1.60;1.50;;;7.80;99.90;;;;;;5454114;26;20432;-74
2024/04/16 11:31:21;;;;;;;1.87;1.77;;;7.90;99.90;;;;;;5454034;26;20415;-74
2024/04/16 11:33:47;;;;;;;1.30;1.20;;;7.90;99.90;;;;;;5455241;26;20675;-72
2024/04/16 11:36:16;;;;;;;1.67;1.57;;;7.80;99.90;;;;;;5455120;26;20267;-71
2024/04/16 11:38:42;;;;;;;1.50;1.40;;;7.80;99.90;;;;;;5454215;26;20214;-72
2024/04/16 11:41:09;;;;;;;1.30;1.20;;;7.90;99.90;;;;;;5455413;26;20485;-74
2024/04/16 11:43:35;;;;;;;1.70;1.60;;;7.90;99.90;;;;;;5423198;26;20219;-73
2024/04/16 11:46:05;;;;;;;1.83;1.73;;;7.80;99.90;;;;;;5454991;26;20413;-74
2024/04/16 11:48:31;;;;;;;1.80;1.70;;;7.80;99.90;;;;;;5453608;26;20416;-74
2024/04/16 11:50:57;;;;;;;1.97;1.80;;;7.90;99.90;;;;;;5422117;26;20964;-74
2024/04/16 11:53:23;;;;;;;1.70;1.60;;;8.00;99.90;;;;;;5420371;26;20983;-74
2024/04/16 11:55:48;;;;;;;2.27;2.07;;;8.10;99.90;;;;;;5422038;26;20541;-74
2024/04/16 11:58:14;;;;;;;1.80;1.70;;;8.10;99.90;;;;;;5420793;26;20226;-72
2024/04/16 12:00:40;;;;;;;2.27;2.07;;;8.10;99.90;;;;;;5422906;26;20725;-72
2024/04/16 12:03:07;;;;;;;2.10;2.00;;;8.30;99.90;;;;;;5454913;26;20324;-74
2024/04/16 12:05:33;;;;;;;2.20;2.10;;;8.30;99.90;;;;;;5454654;26;20224;-74
2024/04/16 12:08:00;;;;;;;3.10;2.10;;;8.60;99.90;;;;;;5418619;26;20461;-75
2024/04/16 12:10:27;;;;;;;4.23;2.70;;;8.80;99.90;;;;;;5422084;26;20451;-74
2024/04/16 12:12:53;;;;;;;2.87;2.60;;;8.70;99.90;;;;;;5454774;26;20479;-72
2024/04/16 12:15:19;;;;;;;2.93;2.63;;;8.60;99.90;;;;;;5454552;26;20422;-73
2024/04/16 12:17:45;;;;;;;2.60;2.27;;;8.70;99.90;;;;;;5454012;26;20478;-71
2024/04/16 12:20:11;;;;;;;3.47;2.50;;;8.70;99.90;;;;;;5454078;26;20233;-74
2024/04/16 12:22:37;;;;;;;3.17;2.87;;;8.70;99.90;;;;;;5454679;26;20271;-72
2024/04/16 12:25:03;;;;;;;6.23;3.07;;;8.80;99.90;;;;;;5453642;26;20748;-75
2024/04/16 12:27:28;;;;;;;3.20;2.57;;;8.60;99.90;;;;;;5422152;26;20434;-75
2024/04/16 12:29:54;;;;;;;8.83;2.70;;;8.70;99.90;;;;;;5453298;26;20476;-72
2024/04/16 12:32:20;;;;;;;3.60;3.27;;;8.70;99.90;;;;;;5454495;26;20224;-72
2024/04/16 12:34:46;;;;;;;4.03;3.00;;;8.90;99.90;;;;;;5422875;26;20219;-74
2024/04/16 12:37:12;;;;;;;2.93;2.70;;;9.00;99.90;;;;;;5422553;26;20231;-72
2024/04/16 12:39:37;;;;;;;4.23;3.20;;;9.10;99.90;;;;;;5453465;26;20272;-72
2024/04/16 12:42:03;;;;;;;3.50;3.20;;;9.30;99.90;;;;;;5454320;26;20480;-75
2024/04/16 12:44:29;;;;;;;5.50;2.80;;;9.40;99.90;;;;;;5421531;26;20221;-75
2024/04/16 12:46:55;;;;;;;2.97;2.77;;;9.60;94.90;;;;;;5454201;26;20542;-73
2024/04/16 12:49:23;;;;;;;3.10;2.10;;;10.10;94.30;;;;;;5421717;26;20233;-76
2024/04/16 12:51:49;;;;;;;4.50;3.53;;;10.60;86.00;;;;;;5453984;26;20323;-73
2024/04/16 12:54:15;;;;;;;3.37;2.87;;;10.60;13.60;;;;;;5454237;26;20421;-73
2024/04/16 12:56:41;;;;;;;8.30;3.37;;;10.60;1.00;;;;;;5454182;26;20521;-72